createdAt,value
2019-03-23T00:01:43.005Z,27.00
2019-03-23T00:04:10.257Z,24.70
2019-03-23T00:06:40.504Z,25.97
2019-03-23T00:09:07.856Z,25.37
2019-03-23T00:11:35.150Z,32.15
2019-03-23T00:14:02.648Z,26.35
2019-03-23T00:16:29.900Z,26.80
2019-03-23T00:18:57.228Z,31.23
2019-03-23T00:21:24.492Z,26.45
2019-03-23T00:23:51.897Z,26.33
2019-03-23T00:26:19.131Z,25.43
2019-03-23T00:28:46.374Z,31.65
2019-03-23T00:31:13.627Z,30.60
2019-03-23T00:33:40.846Z,31.80
2019-03-23T00:36:08.091Z,26.75
2019-03-23T00:38:35.333Z,28.90
2019-03-23T00:41:02.584Z,28.90
2019-03-23T00:43:29.887Z,28.35
2019-03-23T00:45:57.133Z,32.38
2019-03-23T00:48:24.380Z,27.73
2019-03-23T00:50:51.614Z,30.10
2019-03-23T00:53:18.835Z,42.23
2019-03-23T00:55:46.112Z,24.07
2019-03-23T00:58:13.339Z,31.77
2019-03-23T01:00:40.573Z,26.37
2019-03-23T01:03:07.903Z,26.15
2019-03-23T01:05:35.144Z,28.50
2019-03-23T01:08:02.404Z,30.62
2019-03-23T01:10:29.720Z,27.90
2019-03-23T01:12:56.943Z,25.77
2019-03-23T01:15:24.185Z,27.75
2019-03-23T01:17:51.487Z,34.15
2019-03-23T01:20:18.732Z,31.52
2019-03-23T01:22:45.961Z,25.15
2019-03-23T01:25:13.257Z,36.15
2019-03-23T01:27:40.562Z,26.97
2019-03-23T01:30:09.323Z,27.42
2019-03-23T01:32:36.552Z,36.85
2019-03-23T01:35:04.757Z,31.07
2019-03-23T01:37:31.996Z,30.37
2019-03-23T01:39:59.243Z,31.20
2019-03-23T01:42:26.473Z,30.27
2019-03-23T01:44:53.699Z,30.62
2019-03-23T01:47:20.948Z,51.58
2019-03-23T01:49:48.176Z,37.98
2019-03-23T01:52:15.416Z,26.40
2019-03-23T01:54:42.652Z,27.10
2019-03-23T01:57:09.889Z,28.32
2019-03-23T01:59:37.103Z,31.27
2019-03-23T02:02:04.407Z,26.45
2019-03-23T02:04:31.638Z,32.28
2019-03-23T02:06:59.056Z,28.85
2019-03-23T02:09:26.271Z,29.30
2019-03-23T02:11:53.507Z,30.65
2019-03-23T02:14:20.739Z,30.82
2019-03-23T02:16:47.976Z,21.33
2019-03-23T02:19:15.207Z,25.20
2019-03-23T02:21:42.431Z,23.60
2019-03-23T02:24:09.655Z,21.93
2019-03-23T02:26:36.924Z,28.87
2019-03-23T02:29:04.143Z,17.55
2019-03-23T02:31:31.396Z,30.20
2019-03-23T02:33:58.640Z,28.87
2019-03-23T02:36:25.863Z,26.27
2019-03-23T02:38:53.092Z,22.42
2019-03-23T02:41:20.331Z,29.75
2019-03-23T02:43:47.557Z,27.35
2019-03-23T02:46:14.796Z,34.03
2019-03-23T02:48:42.031Z,24.32
2019-03-23T02:51:09.257Z,28.38
2019-03-23T02:53:36.506Z,25.32
2019-03-23T02:56:03.725Z,31.02
2019-03-23T02:58:30.964Z,28.90
2019-03-23T03:00:58.204Z,22.13
2019-03-23T03:03:25.446Z,21.82
2019-03-23T03:05:52.726Z,27.07
2019-03-23T03:08:19.965Z,32.83
2019-03-23T03:10:47.184Z,21.77
2019-03-23T03:13:14.431Z,22.15
2019-03-23T03:15:41.673Z,30.15
2019-03-23T03:18:10.278Z,25.95
2019-03-23T03:20:37.571Z,29.20
2019-03-23T03:23:04.808Z,29.48
2019-03-23T03:25:32.070Z,29.42
2019-03-23T03:27:59.312Z,25.25
2019-03-23T03:30:26.545Z,34.15
2019-03-23T03:32:53.823Z,38.80
2019-03-23T03:35:21.053Z,23.35
2019-03-23T03:37:56.560Z,23.32
2019-03-23T03:40:17.251Z,25.37
2019-03-23T03:42:44.483Z,20.55
2019-03-23T03:45:21.981Z,24.57
2019-03-23T03:47:49.269Z,39.60
2019-03-23T03:50:16.491Z,22.37
2019-03-23T03:52:43.731Z,25.43
2019-03-23T03:55:10.955Z,21.35
2019-03-23T03:57:38.197Z,30.92
2019-03-23T04:00:08.682Z,29.55
2019-03-23T04:02:35.918Z,23.75
2019-03-23T04:05:03.156Z,24.00
2019-03-23T04:07:30.399Z,26.55
2019-03-23T04:09:57.627Z,28.67
2019-03-23T04:12:24.872Z,26.80
2019-03-23T04:14:52.097Z,26.80
2019-03-23T04:17:19.347Z,21.45
2019-03-23T04:19:46.579Z,29.02
2019-03-23T04:22:13.824Z,23.05
2019-03-23T04:24:41.072Z,32.53
2019-03-23T04:27:08.304Z,26.20
2019-03-23T04:29:35.600Z,24.98
2019-03-23T04:32:02.850Z,21.97
2019-03-23T04:34:30.127Z,26.48
2019-03-23T04:36:57.360Z,32.83
2019-03-23T04:39:24.594Z,21.70
2019-03-23T04:41:51.811Z,25.60
2019-03-23T04:44:19.043Z,22.00
2019-03-23T04:46:46.272Z,39.85
2019-03-23T04:49:13.502Z,28.60
2019-03-23T04:51:40.724Z,37.73
2019-03-23T04:54:07.972Z,28.20
2019-03-23T04:56:35.368Z,22.32
2019-03-23T04:59:02.603Z,23.22
2019-03-23T05:01:29.819Z,28.62
2019-03-23T05:03:57.103Z,28.07
2019-03-23T05:06:24.340Z,24.50
2019-03-23T05:08:51.577Z,21.95
2019-03-23T05:11:18.802Z,19.75
2019-03-23T05:13:46.043Z,22.15
2019-03-23T05:16:13.277Z,23.70
2019-03-23T05:18:40.547Z,32.45
2019-03-23T05:21:07.779Z,28.15
2019-03-23T05:23:35.005Z,32.95
2019-03-23T05:26:02.255Z,19.42
2019-03-23T05:28:29.488Z,26.90
2019-03-23T05:30:56.721Z,25.10
2019-03-23T05:33:23.951Z,21.80
2019-03-23T05:35:51.168Z,23.30
2019-03-23T05:38:18.395Z,32.42
2019-03-23T05:40:45.618Z,21.17
2019-03-23T05:43:12.851Z,34.00
2019-03-23T05:45:40.071Z,24.30
2019-03-23T05:48:07.298Z,28.02
2019-03-23T05:50:34.541Z,21.73
2019-03-23T05:53:01.760Z,24.30
2019-03-23T05:55:28.999Z,28.38
2019-03-23T05:57:56.289Z,32.95
2019-03-23T06:00:23.539Z,28.73
2019-03-23T06:02:50.791Z,25.52
2019-03-23T06:05:18.034Z,37.75
2019-03-23T06:07:45.271Z,26.48
2019-03-23T06:10:12.579Z,24.50
2019-03-23T06:12:39.797Z,22.67
2019-03-23T06:15:07.224Z,28.15
2019-03-23T06:17:34.458Z,34.03
2019-03-23T06:20:01.700Z,31.95
2019-03-23T06:22:28.921Z,27.05
2019-03-23T06:24:56.172Z,28.30
2019-03-23T06:27:23.403Z,23.38
2019-03-23T06:29:50.632Z,29.63
2019-03-23T06:32:17.856Z,19.90
2019-03-23T06:34:45.094Z,30.65
2019-03-23T06:37:12.311Z,22.40
2019-03-23T06:39:39.568Z,20.05
2019-03-23T06:42:06.800Z,28.62
2019-03-23T06:44:34.102Z,24.20
2019-03-23T06:47:01.325Z,26.70
2019-03-23T06:49:28.658Z,22.40
2019-03-23T06:51:55.892Z,20.15
2019-03-23T06:54:23.125Z,25.55
2019-03-23T06:56:50.352Z,29.90
2019-03-23T06:59:17.610Z,30.43
2019-03-23T07:01:44.835Z,28.10
2019-03-23T07:04:12.081Z,20.97
2019-03-23T07:06:39.296Z,21.62
2019-03-23T07:09:15.846Z,29.42
2019-03-23T07:11:35.556Z,24.55
2019-03-23T07:14:02.824Z,27.27
2019-03-23T07:16:30.067Z,23.32
2019-03-23T07:18:57.311Z,22.32
2019-03-23T07:21:24.562Z,27.80
2019-03-23T07:23:51.822Z,22.17
2019-03-23T07:26:19.060Z,27.58
2019-03-23T07:28:46.297Z,28.38
2019-03-23T07:31:13.650Z,21.75
2019-03-23T07:33:40.967Z,25.43
2019-03-23T07:36:08.332Z,21.75
2019-03-23T07:38:35.567Z,23.05
2019-03-23T07:41:02.796Z,20.27
2019-03-23T07:43:30.044Z,27.80
2019-03-23T07:45:57.304Z,20.10
2019-03-23T07:48:24.531Z,25.43
2019-03-23T07:50:51.774Z,25.47
2019-03-23T07:53:18.994Z,45.13
2019-03-23T07:55:46.227Z,32.97
2019-03-23T07:58:13.451Z,31.43
2019-03-23T08:00:41.098Z,24.30
2019-03-23T08:03:08.389Z,28.43
2019-03-23T08:05:35.689Z,22.13
2019-03-23T08:08:02.968Z,24.77
2019-03-23T08:10:31.747Z,27.00
2019-03-23T08:12:59.206Z,25.77
2019-03-23T08:15:27.903Z,21.20
2019-03-23T08:17:55.413Z,29.50
2019-03-23T08:20:22.700Z,24.93
2019-03-23T08:22:50.065Z,28.13
2019-03-23T08:25:17.390Z,27.10
2019-03-23T08:27:44.692Z,27.00
2019-03-23T08:30:11.933Z,34.97
2019-03-23T08:32:39.177Z,36.77
2019-03-23T08:35:06.680Z,26.67
2019-03-23T08:37:33.917Z,31.60
2019-03-23T08:40:01.150Z,38.43
2019-03-23T08:42:28.370Z,33.60
2019-03-23T08:44:55.604Z,39.73
2019-03-23T08:47:22.875Z,43.33
2019-03-23T08:49:50.114Z,34.67
2019-03-23T08:52:17.339Z,39.87
2019-03-23T08:54:44.585Z,34.70
2019-03-23T08:57:11.895Z,33.17
2019-03-23T08:59:39.119Z,31.07
2019-03-23T09:02:06.401Z,36.20
2019-03-23T09:04:33.602Z,33.37
2019-03-23T09:07:01.070Z,36.37
2019-03-23T09:09:28.341Z,37.47
2019-03-23T09:11:55.569Z,41.00
2019-03-23T09:14:23.568Z,37.67
2019-03-23T09:16:50.906Z,34.47
2019-03-23T09:19:18.139Z,35.13
2019-03-23T09:21:45.376Z,41.57
2019-03-23T09:24:12.931Z,40.17
2019-03-23T09:26:40.323Z,49.33
2019-03-23T09:29:07.705Z,36.73
2019-03-23T09:31:35.117Z,43.93
2019-03-23T09:34:02.509Z,45.20
2019-03-23T09:36:29.815Z,41.60
2019-03-23T09:38:57.076Z,43.10
2019-03-23T09:41:24.627Z,49.50
2019-03-23T09:43:51.858Z,48.33
2019-03-23T09:46:19.117Z,45.63
2019-03-23T09:48:46.386Z,48.63
2019-03-23T09:51:13.647Z,43.80
2019-03-23T09:53:41.389Z,63.13
2019-03-23T09:56:08.676Z,52.63
2019-03-23T09:58:35.929Z,40.17
2019-03-23T10:01:03.171Z,43.97
2019-03-23T10:03:30.401Z,44.80
2019-03-23T10:05:57.663Z,46.73
2019-03-23T10:08:24.875Z,49.73
2019-03-23T10:10:52.096Z,42.80
2019-03-23T10:13:19.355Z,51.87
2019-03-23T10:15:46.587Z,37.07
2019-03-23T10:18:13.834Z,39.07
2019-03-23T10:20:41.080Z,55.67
2019-03-23T10:23:08.315Z,42.33
2019-03-23T10:25:35.555Z,46.70
2019-03-23T10:28:02.774Z,47.83
2019-03-23T10:30:30.021Z,46.00
2019-03-23T10:32:57.235Z,43.67
2019-03-23T10:35:24.468Z,41.93
2019-03-23T10:37:51.695Z,39.23
2019-03-23T10:40:18.935Z,46.03
2019-03-23T10:42:46.176Z,43.30
2019-03-23T10:45:13.464Z,47.43
2019-03-23T10:47:40.736Z,46.47
2019-03-23T10:50:08.188Z,40.23
2019-03-23T10:52:35.410Z,40.73
2019-03-23T10:55:03.235Z,43.87
2019-03-23T10:57:30.471Z,39.93
2019-03-23T10:59:57.690Z,39.10
2019-03-23T11:02:24.928Z,44.33
2019-03-23T11:04:52.167Z,43.23
2019-03-23T11:07:19.402Z,45.13
2019-03-23T11:09:46.619Z,42.50
2019-03-23T11:12:13.859Z,43.37
2019-03-23T11:14:41.089Z,44.20
2019-03-23T11:17:08.318Z,46.90
2019-03-23T11:19:35.547Z,47.50
2019-03-23T11:22:02.831Z,42.67
2019-03-23T11:24:30.046Z,41.53
2019-03-23T11:26:57.371Z,39.83
2019-03-23T11:29:24.585Z,44.80
2019-03-23T11:31:51.810Z,41.40
2019-03-23T11:34:19.032Z,44.60
2019-03-23T11:36:46.266Z,47.57
2019-03-23T11:39:13.487Z,44.70
2019-03-23T11:41:40.729Z,43.30
2019-03-23T11:44:07.950Z,45.47
2019-03-23T11:46:35.196Z,39.03
2019-03-23T11:49:02.419Z,43.47
2019-03-23T11:51:29.643Z,36.93
2019-03-23T11:53:56.879Z,46.90
2019-03-23T11:56:24.109Z,35.93
2019-03-23T11:58:51.383Z,41.27
2019-03-23T12:01:18.707Z,35.40
2019-03-23T12:03:45.931Z,33.70
2019-03-23T12:06:13.163Z,39.50
2019-03-23T12:08:40.394Z,41.07
2019-03-23T12:11:07.611Z,38.90
2019-03-23T12:13:34.848Z,37.63
2019-03-23T12:16:02.270Z,41.23
2019-03-23T12:18:29.528Z,38.53
2019-03-23T12:20:56.831Z,42.60
2019-03-23T12:23:24.069Z,49.30
2019-03-23T12:25:51.294Z,48.73
2019-03-23T12:28:18.527Z,41.00
2019-03-23T12:30:45.748Z,44.00
2019-03-23T12:33:12.986Z,46.33
2019-03-23T12:35:40.208Z,46.37
2019-03-23T12:38:07.463Z,44.30
2019-03-23T12:40:36.434Z,47.73
2019-03-23T12:43:03.965Z,47.80
2019-03-23T12:45:31.268Z,46.57
2019-03-23T12:47:58.516Z,50.97
2019-03-23T12:50:28.737Z,47.13
2019-03-23T12:52:57.438Z,51.07
2019-03-23T12:55:24.864Z,49.33
2019-03-23T12:57:52.092Z,52.53
2019-03-23T13:00:19.323Z,55.70
2019-03-23T13:02:46.542Z,51.07
2019-03-23T13:05:13.776Z,40.80
2019-03-23T13:07:41.074Z,46.17
2019-03-23T13:10:09.772Z,47.00
2019-03-23T13:12:37.012Z,48.73
2019-03-23T13:15:05.761Z,48.27
2019-03-23T13:17:32.996Z,57.77
2019-03-23T13:20:00.357Z,48.77
2019-03-23T13:22:27.639Z,41.60
2019-03-23T13:24:54.859Z,46.60
2019-03-23T13:27:22.090Z,46.80
2019-03-23T13:29:49.310Z,45.67
2019-03-23T13:32:16.539Z,45.60
2019-03-23T13:34:43.769Z,43.37
2019-03-23T13:37:10.997Z,44.77
2019-03-23T13:39:38.231Z,47.70
2019-03-23T13:42:05.470Z,43.10
2019-03-23T13:44:32.695Z,50.30
2019-03-23T13:46:59.935Z,52.63
2019-03-23T13:49:27.170Z,55.77
2019-03-23T13:51:54.396Z,54.73
2019-03-23T13:54:21.630Z,56.43
2019-03-23T13:56:48.862Z,46.53
2019-03-23T13:59:16.090Z,51.97
2019-03-23T14:01:43.323Z,52.30
2019-03-23T14:04:10.557Z,42.67
2019-03-23T14:06:37.834Z,47.67
2019-03-23T14:09:05.890Z,50.87
2019-03-23T14:11:33.119Z,52.47
2019-03-23T14:14:00.740Z,51.37
2019-03-23T14:16:28.085Z,51.07
2019-03-23T14:18:55.306Z,45.73
2019-03-23T14:21:22.557Z,48.97
2019-03-23T14:23:49.804Z,54.60
2019-03-23T14:26:17.072Z,50.07
2019-03-23T14:28:44.546Z,54.70
2019-03-23T14:31:11.832Z,48.07
2019-03-23T14:33:40.253Z,48.17
2019-03-23T14:36:07.566Z,47.77
2019-03-23T14:38:34.798Z,55.83
2019-03-23T14:41:02.025Z,47.17
2019-03-23T14:43:29.280Z,55.87
2019-03-23T14:45:56.514Z,54.03
2019-03-23T14:48:23.746Z,43.43
2019-03-23T14:50:51.034Z,53.17
2019-03-23T14:53:18.264Z,44.97
2019-03-23T14:55:47.187Z,43.23
2019-03-23T14:58:14.452Z,45.53
2019-03-23T15:00:41.731Z,46.87
2019-03-23T15:03:08.952Z,55.40
2019-03-23T15:05:36.217Z,64.80
2019-03-23T15:08:03.560Z,50.87
2019-03-23T15:10:30.787Z,46.07
2019-03-23T15:12:58.008Z,54.93
2019-03-23T15:15:25.337Z,52.00
2019-03-23T15:17:52.552Z,48.83
2019-03-23T15:20:19.827Z,58.53
2019-03-23T15:22:47.095Z,49.67
2019-03-23T15:25:14.339Z,57.70
2019-03-23T15:27:41.567Z,56.43
2019-03-23T15:30:08.870Z,64.60
2019-03-23T15:32:36.150Z,59.77
2019-03-23T15:35:04.743Z,57.57
2019-03-23T15:37:31.963Z,50.57
2019-03-23T15:39:59.198Z,54.60
2019-03-23T15:42:26.414Z,50.30
2019-03-23T15:44:53.645Z,45.67
2019-03-23T15:47:20.871Z,54.70
2019-03-23T15:49:48.107Z,49.23
2019-03-23T15:52:15.354Z,51.67
2019-03-23T15:54:42.588Z,55.23
2019-03-23T15:57:09.796Z,50.83
2019-03-23T15:59:37.040Z,56.90
2019-03-23T16:02:04.272Z,56.17
2019-03-23T16:04:31.499Z,60.93
2019-03-23T16:06:58.715Z,62.50
2019-03-23T16:09:25.952Z,57.53
2019-03-23T16:11:53.187Z,54.30
2019-03-23T16:14:20.416Z,47.10
2019-03-23T16:16:47.635Z,67.07
2019-03-23T16:19:14.855Z,55.80
2019-03-23T16:21:42.087Z,48.47
2019-03-23T16:24:09.308Z,63.33
2019-03-23T16:26:36.547Z,44.07
2019-03-23T16:29:03.839Z,52.60
2019-03-23T16:31:31.107Z,55.97
2019-03-23T16:33:58.336Z,50.60
2019-03-23T16:36:25.728Z,58.33
2019-03-23T16:38:52.949Z,50.57
2019-03-23T16:41:20.174Z,55.17
2019-03-23T16:43:47.400Z,54.07
2019-03-23T16:46:14.641Z,57.03
2019-03-23T16:48:41.903Z,59.80
2019-03-23T16:51:09.174Z,48.43
2019-03-23T16:53:36.398Z,48.77
2019-03-23T16:56:03.668Z,49.53
2019-03-23T17:44:23.737Z,54.43
2019-03-23T21:10:41.327Z,73.33
2019-03-23T21:13:08.575Z,68.50
2019-03-23T21:15:35.790Z,69.27
2019-03-23T21:18:03.014Z,86.30
2019-03-23T21:20:30.246Z,83.40
2019-03-23T21:22:57.468Z,70.80
2019-03-23T21:25:24.742Z,67.80
2019-03-23T21:27:51.964Z,77.23
2019-03-23T21:30:19.363Z,60.53
2019-03-23T21:32:46.584Z,64.00
2019-03-23T21:35:15.666Z,61.10
2019-03-23T21:37:42.774Z,64.90
2019-03-23T21:40:10.014Z,67.77
2019-03-23T21:42:37.316Z,72.40
2019-03-23T21:45:05.738Z,97.33
2019-03-23T21:47:32.958Z,77.60
2019-03-23T21:50:00.364Z,90.00
2019-03-23T21:52:28.816Z,98.20
2019-03-23T21:54:56.067Z,77.27
2019-03-23T21:57:23.342Z,87.60
2019-03-23T21:59:50.587Z,93.40
2019-03-23T22:02:17.889Z,87.70
2019-03-23T22:04:45.160Z,90.30
2019-03-23T22:07:12.382Z,94.37
2019-03-23T22:09:39.615Z,93.00
2019-03-23T22:12:06.841Z,105.23
2019-03-23T22:14:41.626Z,89.87
2019-03-23T22:17:03.045Z,107.43
2019-03-23T22:19:30.315Z,105.83
2019-03-23T22:21:57.568Z,86.53
2019-03-23T22:24:24.805Z,92.03
2019-03-23T22:26:52.027Z,92.87
2019-03-23T22:29:19.296Z,93.10
2019-03-23T22:31:46.573Z,93.47
2019-03-23T22:34:13.827Z,98.57
2019-03-23T22:36:41.046Z,102.47
2019-03-23T22:39:08.288Z,79.67
2019-03-23T22:41:35.507Z,80.03
2019-03-23T22:44:02.820Z,94.13
2019-03-23T22:46:30.058Z,99.10
2019-03-23T22:48:57.280Z,91.90
2019-03-23T22:51:24.508Z,100.37
2019-03-23T22:53:51.750Z,85.15
2019-03-23T22:56:18.991Z,100.18
2019-03-23T22:58:46.230Z,93.10
2019-03-23T23:01:13.463Z,99.10
2019-03-23T23:03:40.703Z,91.65
2019-03-23T23:06:07.939Z,96.87
2019-03-23T23:08:35.182Z,102.40
2019-03-23T23:11:02.432Z,101.87
2019-03-23T23:13:29.675Z,101.25
2019-03-23T23:15:56.923Z,113.25
2019-03-23T23:18:24.159Z,101.45
2019-03-23T23:20:51.408Z,91.90
2019-03-23T23:23:18.652Z,84.50
2019-03-23T23:25:45.896Z,91.30
2019-03-23T23:28:13.126Z,79.32
2019-03-23T23:30:40.598Z,80.17
2019-03-23T23:33:07.828Z,98.58
2019-03-23T23:35:35.074Z,103.62
2019-03-23T23:38:02.299Z,105.85
2019-03-23T23:40:29.539Z,90.42
2019-03-23T23:42:56.770Z,115.90
2019-03-23T23:45:24.008Z,87.22
2019-03-23T23:47:51.261Z,92.97
2019-03-23T23:50:18.498Z,95.77
2019-03-23T23:52:45.739Z,92.92
2019-03-23T23:55:13.049Z,72.65
2019-03-23T23:57:40.271Z,89.80
